sensor_id;sensor_type;location;lat;lon;timestamp;P1;durP1;ratioP1;P2;durP2;ratioP2
11255;SDS011;5685;52.384;13.420;2022-12-16T00:01:12;34.87;;;31.80;;
11255;SDS011;5685;52.384;13.420;2022-12-16T00:04:18;36.50;;;33.00;;
11255;SDS011;5685;52.384;13.420;2022-12-16T00:07:20;35.20;;;32.00;;
11255;SDS011;5685;52.384;13.420;2022-12-16T00:10:23;36.30;;;33.00;;
11255;SDS011;5685;52.384;13.420;2022-12-16T00:13:46;35.43;;;32.33;;
11255;SDS011;5685;52.384;13.420;2022-12-16T00:16:49;36.43;;;33.17;;
11255;SDS011;5685;52.384;13.420;2022-12-16T00:19:53;36.27;;;32.90;;
11255;SDS011;5685;52.384;13.420;2022-12-16T00:22:55;37.00;;;33.57;;
11255;SDS011;5685;52.384;13.420;2022-12-16T00:25:58;36.93;;;33.33;;
11255;SDS011;5685;52.384;13.420;2022-12-16T00:29:01;37.17;;;33.57;;
11255;SDS011;5685;52.384;13.420;2022-12-16T00:32:04;37.67;;;34.13;;
11255;SDS011;5685;52.384;13.420;2022-12-16T00:35:09;36.60;;;33.23;;
11255;SDS011;5685;52.384;13.420;2022-12-16T00:38:11;35.93;;;32.33;;
11255;SDS011;5685;52.384;13.420;2022-12-16T00:41:14;35.90;;;32.60;;
11255;SDS011;5685;52.384;13.420;2022-12-16T00:44:17;36.93;;;33.50;;
11255;SDS011;5685;52.384;13.420;2022-12-16T00:47:19;36.37;;;32.83;;
11255;SDS011;5685;52.384;13.420;2022-12-16T00:50:24;37.67;;;33.93;;
11255;SDS011;5685;52.384;13.420;2022-12-16T00:53:26;36.27;;;32.63;;
11255;SDS011;5685;52.384;13.420;2022-12-16T00:56:29;36.63;;;32.93;;
11255;SDS011;5685;52.384;13.420;2022-12-16T00:59:32;36.40;;;32.97;;
11255;SDS011;5685;52.384;13.420;2022-12-16T01:02:34;36.30;;;33.03;;
11255;SDS011;5685;52.384;13.420;2022-12-16T01:05:38;36.67;;;33.17;;
11255;SDS011;5685;52.384;13.420;2022-12-16T01:08:41;36.60;;;33.10;;
11255;SDS011;5685;52.384;13.420;2022-12-16T01:11:47;34.90;;;31.77;;
11255;SDS011;5685;52.384;13.420;2022-12-16T01:14:50;36.40;;;33.07;;
11255;SDS011;5685;52.384;13.420;2022-12-16T01:17:52;35.50;;;32.27;;
11255;SDS011;5685;52.384;13.420;2022-12-16T01:21:02;36.53;;;33.27;;
11255;SDS011;5685;52.384;13.420;2022-12-16T01:24:05;35.80;;;32.50;;
11255;SDS011;5685;52.384;13.420;2022-12-16T01:27:07;34.60;;;31.40;;
11255;SDS011;5685;52.384;13.420;2022-12-16T01:30:10;35.53;;;32.33;;
11255;SDS011;5685;52.384;13.420;2022-12-16T01:33:13;35.43;;;32.27;;
11255;SDS011;5685;52.384;13.420;2022-12-16T01:36:18;35.07;;;31.90;;
11255;SDS011;5685;52.384;13.420;2022-12-16T01:39:21;35.90;;;32.60;;
11255;SDS011;5685;52.384;13.420;2022-12-16T01:42:26;35.53;;;32.33;;
11255;SDS011;5685;52.384;13.420;2022-12-16T01:45:31;35.00;;;31.90;;
11255;SDS011;5685;52.384;13.420;2022-12-16T01:48:37;35.63;;;32.30;;
11255;SDS011;5685;52.384;13.420;2022-12-16T01:51:43;35.60;;;32.40;;
11255;SDS011;5685;52.384;13.420;2022-12-16T01:54:47;35.43;;;32.37;;
11255;SDS011;5685;52.384;13.420;2022-12-16T01:57:53;34.73;;;31.73;;
11255;SDS011;5685;52.384;13.420;2022-12-16T02:00:57;35.73;;;32.47;;
11255;SDS011;5685;52.384;13.420;2022-12-16T02:04:01;34.40;;;31.37;;
11255;SDS011;5685;52.384;13.420;2022-12-16T02:07:06;34.90;;;31.70;;
11255;SDS011;5685;52.384;13.420;2022-12-16T02:10:09;34.50;;;31.43;;
11255;SDS011;5685;52.384;13.420;2022-12-16T02:13:14;34.63;;;31.53;;
11255;SDS011;5685;52.384;13.420;2022-12-16T02:16:23;34.57;;;31.47;;
11255;SDS011;5685;52.384;13.420;2022-12-16T02:23:07;34.77;;;31.67;;
11255;SDS011;5685;52.384;13.420;2022-12-16T02:26:33;34.13;;;31.07;;
11255;SDS011;5685;52.384;13.420;2022-12-16T02:29:56;33.83;;;30.93;;
11255;SDS011;5685;52.384;13.420;2022-12-16T02:33:12;34.50;;;31.53;;
11255;SDS011;5685;52.384;13.420;2022-12-16T02:36:31;33.87;;;30.87;;
11255;SDS011;5685;52.384;13.420;2022-12-16T02:39:41;34.27;;;31.17;;
11255;SDS011;5685;52.384;13.420;2022-12-16T02:42:49;34.60;;;31.50;;
11255;SDS011;5685;52.384;13.420;2022-12-16T02:45:54;33.67;;;30.97;;
11255;SDS011;5685;52.384;13.420;2022-12-16T02:49:04;34.50;;;31.43;;
11255;SDS011;5685;52.384;13.420;2022-12-16T02:52:08;34.23;;;31.23;;
11255;SDS011;5685;52.384;13.420;2022-12-16T02:55:11;34.00;;;31.00;;
11255;SDS011;5685;52.384;13.420;2022-12-16T02:58:15;35.27;;;32.07;;
11255;SDS011;5685;52.384;13.420;2022-12-16T03:01:23;34.13;;;31.07;;
11255;SDS011;5685;52.384;13.420;2022-12-16T03:04:30;34.70;;;31.73;;
11255;SDS011;5685;52.384;13.420;2022-12-16T03:07:38;34.37;;;31.37;;
11255;SDS011;5685;52.384;13.420;2022-12-16T03:10:42;33.93;;;31.03;;
11255;SDS011;5685;52.384;13.420;2022-12-16T03:13:47;34.07;;;31.00;;
11255;SDS011;5685;52.384;13.420;2022-12-16T03:16:52;34.60;;;31.57;;
11255;SDS011;5685;52.384;13.420;2022-12-16T03:19:59;34.83;;;31.63;;
11255;SDS011;5685;52.384;13.420;2022-12-16T03:23:09;35.20;;;32.00;;
11255;SDS011;5685;52.384;13.420;2022-12-16T03:26:14;34.67;;;31.67;;
11255;SDS011;5685;52.384;13.420;2022-12-16T03:29:20;35.47;;;32.17;;
11255;SDS011;5685;52.384;13.420;2022-12-16T03:32:28;34.50;;;31.37;;
11255;SDS011;5685;52.384;13.420;2022-12-16T03:35:37;34.53;;;31.37;;
11255;SDS011;5685;52.384;13.420;2022-12-16T03:38:42;33.83;;;31.03;;
11255;SDS011;5685;52.384;13.420;2022-12-16T03:41:46;33.10;;;30.27;;
11255;SDS011;5685;52.384;13.420;2022-12-16T03:44:51;34.60;;;31.60;;
11255;SDS011;5685;52.384;13.420;2022-12-16T03:47:55;33.83;;;30.87;;
11255;SDS011;5685;52.384;13.420;2022-12-16T03:51:00;35.03;;;31.93;;
11255;SDS011;5685;52.384;13.420;2022-12-16T03:54:03;34.30;;;31.37;;
11255;SDS011;5685;52.384;13.420;2022-12-16T03:57:06;34.00;;;30.90;;
11255;SDS011;5685;52.384;13.420;2022-12-16T04:00:09;33.20;;;30.40;;
11255;SDS011;5685;52.384;13.420;2022-12-16T04:03:12;35.27;;;32.00;;
11255;SDS011;5685;52.384;13.420;2022-12-16T04:06:16;33.63;;;30.83;;
11255;SDS011;5685;52.384;13.420;2022-12-16T04:09:19;33.97;;;30.97;;
11255;SDS011;5685;52.384;13.420;2022-12-16T04:12:22;33.97;;;30.97;;
11255;SDS011;5685;52.384;13.420;2022-12-16T04:15:42;33.93;;;30.87;;
11255;SDS011;5685;52.384;13.420;2022-12-16T04:19:02;33.83;;;30.83;;
11255;SDS011;5685;52.384;13.420;2022-12-16T04:22:25;34.13;;;31.13;;
11255;SDS011;5685;52.384;13.420;2022-12-16T04:25:47;32.87;;;30.10;;
11255;SDS011;5685;52.384;13.420;2022-12-16T04:28:50;33.27;;;30.40;;
11255;SDS011;5685;52.384;13.420;2022-12-16T04:31:52;33.87;;;30.73;;
11255;SDS011;5685;52.384;13.420;2022-12-16T04:34:55;33.77;;;30.77;;
11255;SDS011;5685;52.384;13.420;2022-12-16T04:38:13;33.70;;;30.83;;
11255;SDS011;5685;52.384;13.420;2022-12-16T04:41:33;34.00;;;30.97;;
11255;SDS011;5685;52.384;13.420;2022-12-16T04:44:53;33.50;;;30.67;;
11255;SDS011;5685;52.384;13.420;2022-12-16T04:48:14;33.90;;;30.83;;
11255;SDS011;5685;52.384;13.420;2022-12-16T04:51:34;33.17;;;30.37;;
11255;SDS011;5685;52.384;13.420;2022-12-16T04:54:55;34.27;;;31.27;;
11255;SDS011;5685;52.384;13.420;2022-12-16T04:58:14;32.47;;;29.77;;
11255;SDS011;5685;52.384;13.420;2022-12-16T05:01:35;34.13;;;31.07;;
11255;SDS011;5685;52.384;13.420;2022-12-16T05:04:54;33.87;;;30.77;;
11255;SDS011;5685;52.384;13.420;2022-12-16T05:08:14;34.23;;;31.13;;
11255;SDS011;5685;52.384;13.420;2022-12-16T05:11:36;33.23;;;30.20;;
11255;SDS011;5685;52.384;13.420;2022-12-16T05:14:56;34.53;;;31.53;;
11255;SDS011;5685;52.384;13.420;2022-12-16T05:18:16;35.03;;;31.83;;
11255;SDS011;5685;52.384;13.420;2022-12-16T05:21:35;33.87;;;30.97;;
11255;SDS011;5685;52.384;13.420;2022-12-16T05:24:55;33.77;;;30.93;;
11255;SDS011;5685;52.384;13.420;2022-12-16T05:28:16;33.87;;;30.67;;
11255;SDS011;5685;52.384;13.420;2022-12-16T05:31:36;33.27;;;30.27;;
11255;SDS011;5685;52.384;13.420;2022-12-16T05:34:56;33.80;;;30.90;;
11255;SDS011;5685;52.384;13.420;2022-12-16T05:38:16;33.93;;;30.80;;
11255;SDS011;5685;52.384;13.420;2022-12-16T05:41:36;33.47;;;30.53;;
11255;SDS011;5685;52.384;13.420;2022-12-16T05:44:58;34.30;;;30.97;;
11255;SDS011;5685;52.384;13.420;2022-12-16T05:48:18;34.03;;;30.80;;
11255;SDS011;5685;52.384;13.420;2022-12-16T05:51:37;33.37;;;30.43;;
11255;SDS011;5685;52.384;13.420;2022-12-16T05:54:57;34.30;;;31.33;;
11255;SDS011;5685;52.384;13.420;2022-12-16T05:58:16;34.30;;;31.33;;
11255;SDS011;5685;52.384;13.420;2022-12-16T06:01:38;34.03;;;31.03;;
11255;SDS011;5685;52.384;13.420;2022-12-16T06:04:57;33.73;;;30.60;;
11255;SDS011;5685;52.384;13.420;2022-12-16T06:08:17;33.93;;;30.93;;
11255;SDS011;5685;52.384;13.420;2022-12-16T06:11:37;33.40;;;30.50;;
11255;SDS011;5685;52.384;13.420;2022-12-16T06:14:57;33.87;;;30.97;;
11255;SDS011;5685;52.384;13.420;2022-12-16T06:18:19;33.63;;;30.50;;
11255;SDS011;5685;52.384;13.420;2022-12-16T06:21:38;34.00;;;31.10;;
11255;SDS011;5685;52.384;13.420;2022-12-16T06:24:58;34.03;;;31.07;;
11255;SDS011;5685;52.384;13.420;2022-12-16T06:28:18;33.77;;;30.73;;
11255;SDS011;5685;52.384;13.420;2022-12-16T06:31:39;33.87;;;30.87;;
11255;SDS011;5685;52.384;13.420;2022-12-16T06:35:00;33.67;;;30.77;;
11255;SDS011;5685;52.384;13.420;2022-12-16T06:38:20;33.57;;;30.67;;
11255;SDS011;5685;52.384;13.420;2022-12-16T06:41:40;33.77;;;30.60;;
11255;SDS011;5685;52.384;13.420;2022-12-16T06:45:00;33.83;;;30.97;;
11255;SDS011;5685;52.384;13.420;2022-12-16T06:48:21;33.77;;;30.83;;
11255;SDS011;5685;52.384;13.420;2022-12-16T06:51:42;33.97;;;30.87;;
11255;SDS011;5685;52.384;13.420;2022-12-16T06:55:02;33.17;;;30.27;;
11255;SDS011;5685;52.384;13.420;2022-12-16T06:58:23;32.70;;;30.00;;
11255;SDS011;5685;52.384;13.420;2022-12-16T07:01:42;33.87;;;30.87;;
11255;SDS011;5685;52.384;13.420;2022-12-16T07:05:03;33.57;;;30.57;;
11255;SDS011;5685;52.384;13.420;2022-12-16T07:08:25;33.63;;;30.67;;
11255;SDS011;5685;52.384;13.420;2022-12-16T07:11:44;33.47;;;30.57;;
11255;SDS011;5685;52.384;13.420;2022-12-16T07:15:05;33.53;;;30.53;;
11255;SDS011;5685;52.384;13.420;2022-12-16T07:18:25;34.07;;;30.93;;
11255;SDS011;5685;52.384;13.420;2022-12-16T07:21:45;34.70;;;31.50;;
11255;SDS011;5685;52.384;13.420;2022-12-16T07:25:18;33.60;;;30.60;;
11255;SDS011;5685;52.384;13.420;2022-12-16T07:28:37;33.17;;;30.17;;
11255;SDS011;5685;52.384;13.420;2022-12-16T07:31:57;32.90;;;30.03;;
11255;SDS011;5685;52.384;13.420;2022-12-16T07:35:17;34.00;;;30.97;;
11255;SDS011;5685;52.384;13.420;2022-12-16T07:38:37;33.20;;;30.30;;
11255;SDS011;5685;52.384;13.420;2022-12-16T07:41:58;33.50;;;30.50;;
11255;SDS011;5685;52.384;13.420;2022-12-16T07:45:18;34.03;;;30.77;;
11255;SDS011;5685;52.384;13.420;2022-12-16T07:48:37;33.87;;;31.07;;
11255;SDS011;5685;52.384;13.420;2022-12-16T07:51:57;34.17;;;31.03;;
11255;SDS011;5685;52.384;13.420;2022-12-16T07:55:18;34.93;;;31.80;;
11255;SDS011;5685;52.384;13.420;2022-12-16T07:58:40;34.13;;;31.10;;
11255;SDS011;5685;52.384;13.420;2022-12-16T08:01:59;34.80;;;31.83;;
11255;SDS011;5685;52.384;13.420;2022-12-16T08:05:19;33.70;;;30.70;;
11255;SDS011;5685;52.384;13.420;2022-12-16T08:08:39;34.93;;;31.53;;
11255;SDS011;5685;52.384;13.420;2022-12-16T08:12:10;34.77;;;31.47;;
11255;SDS011;5685;52.384;13.420;2022-12-16T08:15:32;34.77;;;31.63;;
11255;SDS011;5685;52.384;13.420;2022-12-16T08:18:52;35.23;;;31.83;;
11255;SDS011;5685;52.384;13.420;2022-12-16T08:22:12;34.67;;;31.67;;
11255;SDS011;5685;52.384;13.420;2022-12-16T08:25:32;34.70;;;31.70;;
11255;SDS011;5685;52.384;13.420;2022-12-16T08:28:52;34.73;;;31.53;;
11255;SDS011;5685;52.384;13.420;2022-12-16T08:32:13;34.57;;;31.37;;
11255;SDS011;5685;52.384;13.420;2022-12-16T08:35:39;34.80;;;31.60;;
11255;SDS011;5685;52.384;13.420;2022-12-16T08:38:59;35.40;;;32.13;;
11255;SDS011;5685;52.384;13.420;2022-12-16T08:42:18;36.17;;;32.80;;
11255;SDS011;5685;52.384;13.420;2022-12-16T08:45:38;35.67;;;32.37;;
11255;SDS011;5685;52.384;13.420;2022-12-16T08:49:00;34.90;;;31.70;;
11255;SDS011;5685;52.384;13.420;2022-12-16T08:52:20;35.93;;;32.63;;
11255;SDS011;5685;52.384;13.420;2022-12-16T08:55:41;34.83;;;31.53;;
11255;SDS011;5685;52.384;13.420;2022-12-16T08:59:00;35.10;;;31.80;;
11255;SDS011;5685;52.384;13.420;2022-12-16T09:02:21;34.37;;;31.37;;
11255;SDS011;5685;52.384;13.420;2022-12-16T09:05:43;35.37;;;32.07;;
11255;SDS011;5685;52.384;13.420;2022-12-16T09:09:03;37.10;;;33.47;;
11255;SDS011;5685;52.384;13.420;2022-12-16T09:12:22;36.73;;;33.27;;
11255;SDS011;5685;52.384;13.420;2022-12-16T09:15:43;36.20;;;32.73;;
11255;SDS011;5685;52.384;13.420;2022-12-16T09:19:03;35.90;;;32.47;;
11255;SDS011;5685;52.384;13.420;2022-12-16T09:22:25;35.33;;;32.13;;
11255;SDS011;5685;52.384;13.420;2022-12-16T09:25:45;35.00;;;31.80;;
11255;SDS011;5685;52.384;13.420;2022-12-16T09:29:05;36.20;;;32.73;;
11255;SDS011;5685;52.384;13.420;2022-12-16T09:32:25;36.43;;;33.03;;
11255;SDS011;5685;52.384;13.420;2022-12-16T09:35:45;36.97;;;33.23;;
11255;SDS011;5685;52.384;13.420;2022-12-16T09:39:07;36.67;;;33.10;;
11255;SDS011;5685;52.384;13.420;2022-12-16T09:42:28;38.07;;;34.43;;
11255;SDS011;5685;52.384;13.420;2022-12-16T09:45:52;36.67;;;33.17;;
11255;SDS011;5685;52.384;13.420;2022-12-16T09:49:15;37.53;;;33.60;;
11255;SDS011;5685;52.384;13.420;2022-12-16T09:52:40;35.90;;;32.67;;
11255;SDS011;5685;52.384;13.420;2022-12-16T09:56:04;35.80;;;32.40;;
11255;SDS011;5685;52.384;13.420;2022-12-16T09:59:26;36.47;;;33.07;;
11255;SDS011;5685;52.384;13.420;2022-12-16T10:02:48;35.23;;;31.77;;
11255;SDS011;5685;52.384;13.420;2022-12-16T10:06:11;37.43;;;33.63;;
11255;SDS011;5685;52.384;13.420;2022-12-16T10:09:56;36.60;;;33.03;;
11255;SDS011;5685;52.384;13.420;2022-12-16T10:13:23;36.13;;;32.63;;
11255;SDS011;5685;52.384;13.420;2022-12-16T10:16:57;36.33;;;32.90;;
11255;SDS011;5685;52.384;13.420;2022-12-16T10:20:23;35.33;;;32.20;;
11255;SDS011;5685;52.384;13.420;2022-12-16T10:23:48;36.77;;;33.07;;
11255;SDS011;5685;52.384;13.420;2022-12-16T10:27:13;36.67;;;33.27;;
11255;SDS011;5685;52.384;13.420;2022-12-16T10:30:36;34.80;;;31.53;;
11255;SDS011;5685;52.384;13.420;2022-12-16T10:33:57;35.77;;;32.27;;
11255;SDS011;5685;52.384;13.420;2022-12-16T10:37:19;34.57;;;31.50;;
11255;SDS011;5685;52.384;13.420;2022-12-16T10:40:41;35.27;;;31.97;;
11255;SDS011;5685;52.384;13.420;2022-12-16T10:44:02;35.70;;;32.37;;
11255;SDS011;5685;52.384;13.420;2022-12-16T10:47:25;34.90;;;31.70;;
11255;SDS011;5685;52.384;13.420;2022-12-16T10:50:45;23.83;;;22.43;;
11255;SDS011;5685;52.384;13.420;2022-12-16T10:54:12;23.53;;;22.13;;
11255;SDS011;5685;52.384;13.420;2022-12-16T10:57:42;23.70;;;22.30;;
11255;SDS011;5685;52.384;13.420;2022-12-16T11:08:48;22.97;;;21.67;;
11255;SDS011;5685;52.384;13.420;2022-12-16T11:12:22;23.80;;;22.40;;
11255;SDS011;5685;52.384;13.420;2022-12-16T11:15:43;23.23;;;21.90;;
11255;SDS011;5685;52.384;13.420;2022-12-16T11:19:03;23.27;;;21.80;;
11255;SDS011;5685;52.384;13.420;2022-12-16T11:22:27;23.23;;;21.93;;
11255;SDS011;5685;52.384;13.420;2022-12-16T11:25:58;24.00;;;22.60;;
11255;SDS011;5685;52.384;13.420;2022-12-16T11:29:22;23.30;;;21.90;;
11255;SDS011;5685;52.384;13.420;2022-12-16T11:32:54;24.10;;;22.70;;
11255;SDS011;5685;52.384;13.420;2022-12-16T11:36:17;23.47;;;22.10;;
11255;SDS011;5685;52.384;13.420;2022-12-16T11:39:52;23.53;;;22.20;;
11255;SDS011;5685;52.384;13.420;2022-12-16T11:43:12;23.70;;;22.30;;
11255;SDS011;5685;52.384;13.420;2022-12-16T11:46:33;23.87;;;22.40;;
11255;SDS011;5685;52.384;13.420;2022-12-16T11:49:53;23.60;;;22.20;;
11255;SDS011;5685;52.384;13.420;2022-12-16T11:53:23;23.37;;;22.07;;
11255;SDS011;5685;52.384;13.420;2022-12-16T11:56:48;23.20;;;21.90;;
11255;SDS011;5685;52.384;13.420;2022-12-16T12:00:09;23.37;;;22.03;;
11255;SDS011;5685;52.384;13.420;2022-12-16T12:03:34;23.13;;;21.83;;
11255;SDS011;5685;52.384;13.420;2022-12-16T12:07:05;23.90;;;22.50;;
11255;SDS011;5685;52.384;13.420;2022-12-16T12:10:46;24.03;;;22.63;;
11255;SDS011;5685;52.384;13.420;2022-12-16T12:14:14;23.27;;;21.97;;
11255;SDS011;5685;52.384;13.420;2022-12-16T12:17:38;23.27;;;21.87;;
11255;SDS011;5685;52.384;13.420;2022-12-16T12:21:03;23.10;;;21.80;;
11255;SDS011;5685;52.384;13.420;2022-12-16T12:24:37;23.30;;;21.97;;
11255;SDS011;5685;52.384;13.420;2022-12-16T12:28:02;23.40;;;22.10;;
11255;SDS011;5685;52.384;13.420;2022-12-16T12:31:30;23.43;;;22.03;;
11255;SDS011;5685;52.384;13.420;2022-12-16T12:34:55;23.67;;;22.27;;
11255;SDS011;5685;52.384;13.420;2022-12-16T12:38:22;22.97;;;21.67;;
11255;SDS011;5685;52.384;13.420;2022-12-16T12:41:49;23.67;;;22.27;;
11255;SDS011;5685;52.384;13.420;2022-12-16T12:45:23;23.23;;;21.83;;
11255;SDS011;5685;52.384;13.420;2022-12-16T12:49:03;23.37;;;22.07;;
11255;SDS011;5685;52.384;13.420;2022-12-16T12:52:36;23.40;;;22.00;;
11255;SDS011;5685;52.384;13.420;2022-12-16T12:56:14;23.20;;;21.90;;
11255;SDS011;5685;52.384;13.420;2022-12-16T12:59:42;23.20;;;21.90;;
11255;SDS011;5685;52.384;13.420;2022-12-16T13:03:06;23.43;;;22.10;;
11255;SDS011;5685;52.384;13.420;2022-12-16T13:06:38;23.20;;;21.90;;
11255;SDS011;5685;52.384;13.420;2022-12-16T13:10:13;23.20;;;21.90;;
11255;SDS011;5685;52.384;13.420;2022-12-16T13:13:47;23.13;;;21.83;;
11255;SDS011;5685;52.384;13.420;2022-12-16T13:17:07;23.70;;;22.30;;
11255;SDS011;5685;52.384;13.420;2022-12-16T13:20:35;23.50;;;22.10;;
11255;SDS011;5685;52.384;13.420;2022-12-16T13:23:57;23.67;;;22.27;;
11255;SDS011;5685;52.384;13.420;2022-12-16T13:27:45;23.43;;;22.07;;
11255;SDS011;5685;52.384;13.420;2022-12-16T13:31:11;24.03;;;22.63;;
11255;SDS011;5685;52.384;13.420;2022-12-16T13:34:31;23.83;;;22.43;;
11255;SDS011;5685;52.384;13.420;2022-12-16T13:37:51;23.63;;;22.23;;
11255;SDS011;5685;52.384;13.420;2022-12-16T13:44:56;24.00;;;22.60;;
11255;SDS011;5685;52.384;13.420;2022-12-16T13:48:30;24.03;;;22.63;;
11255;SDS011;5685;52.384;13.420;2022-12-16T13:51:58;23.43;;;22.13;;
11255;SDS011;5685;52.384;13.420;2022-12-16T13:55:19;23.60;;;22.20;;
11255;SDS011;5685;52.384;13.420;2022-12-16T13:58:43;23.50;;;22.10;;
11255;SDS011;5685;52.384;13.420;2022-12-16T14:02:20;23.73;;;22.33;;
11255;SDS011;5685;52.384;13.420;2022-12-16T14:05:44;22.97;;;21.67;;
11255;SDS011;5685;52.384;13.420;2022-12-16T14:09:04;23.27;;;21.93;;
11255;SDS011;5685;52.384;13.420;2022-12-16T14:12:39;23.27;;;21.97;;
11255;SDS011;5685;52.384;13.420;2022-12-16T14:16:11;23.23;;;21.93;;
11255;SDS011;5685;52.384;13.420;2022-12-16T14:19:40;23.60;;;22.20;;
11255;SDS011;5685;52.384;13.420;2022-12-16T14:23:10;23.20;;;21.90;;
11255;SDS011;5685;52.384;13.420;2022-12-16T14:26:38;23.40;;;22.00;;
11255;SDS011;5685;52.384;13.420;2022-12-16T14:29:59;23.20;;;21.90;;
11255;SDS011;5685;52.384;13.420;2022-12-16T14:33:21;23.20;;;21.90;;
11255;SDS011;5685;52.384;13.420;2022-12-16T14:36:42;23.33;;;21.93;;
11255;SDS011;5685;52.384;13.420;2022-12-16T14:40:04;23.47;;;22.10;;
11255;SDS011;5685;52.384;13.420;2022-12-16T14:43:36;23.30;;;22.00;;
11255;SDS011;5685;52.384;13.420;2022-12-16T14:46:55;23.27;;;21.97;;
11255;SDS011;5685;52.384;13.420;2022-12-16T14:50:19;23.10;;;21.80;;
11255;SDS011;5685;52.384;13.420;2022-12-16T14:53:41;23.33;;;22.03;;
11255;SDS011;5685;52.384;13.420;2022-12-16T14:57:01;23.47;;;22.07;;
11255;SDS011;5685;52.384;13.420;2022-12-16T15:00:22;23.63;;;22.23;;
11255;SDS011;5685;52.384;13.420;2022-12-16T15:03:43;23.10;;;21.80;;
11255;SDS011;5685;52.384;13.420;2022-12-16T15:07:04;23.20;;;21.90;;
11255;SDS011;5685;52.384;13.420;2022-12-16T15:10:27;23.33;;;22.03;;
11255;SDS011;5685;52.384;13.420;2022-12-16T15:13:47;23.37;;;21.97;;
11255;SDS011;5685;52.384;13.420;2022-12-16T15:17:17;23.50;;;22.17;;
11255;SDS011;5685;52.384;13.420;2022-12-16T15:20:40;23.77;;;22.37;;
11255;SDS011;5685;52.384;13.420;2022-12-16T15:24:06;23.17;;;21.87;;
11255;SDS011;5685;52.384;13.420;2022-12-16T15:27:32;23.63;;;22.23;;
11255;SDS011;5685;52.384;13.420;2022-12-16T15:30:53;23.47;;;22.07;;
11255;SDS011;5685;52.384;13.420;2022-12-16T15:34:20;23.77;;;22.37;;
11255;SDS011;5685;52.384;13.420;2022-12-16T15:37:46;23.80;;;22.30;;
11255;SDS011;5685;52.384;13.420;2022-12-16T15:41:16;23.17;;;21.87;;
11255;SDS011;5685;52.384;13.420;2022-12-16T15:44:43;23.63;;;22.23;;
11255;SDS011;5685;52.384;13.420;2022-12-16T15:48:07;23.53;;;22.13;;
11255;SDS011;5685;52.384;13.420;2022-12-16T15:51:31;23.20;;;21.90;;
11255;SDS011;5685;52.384;13.420;2022-12-16T15:55:00;23.23;;;21.90;;
11255;SDS011;5685;52.384;13.420;2022-12-16T15:58:38;23.17;;;21.87;;
11255;SDS011;5685;52.384;13.420;2022-12-16T16:02:04;23.57;;;22.17;;
11255;SDS011;5685;52.384;13.420;2022-12-16T16:05:27;23.67;;;22.27;;
11255;SDS011;5685;52.384;13.420;2022-12-16T16:08:48;23.23;;;21.93;;
11255;SDS011;5685;52.384;13.420;2022-12-16T16:12:09;23.70;;;22.30;;
11255;SDS011;5685;52.384;13.420;2022-12-16T16:15:30;23.90;;;22.50;;
11255;SDS011;5685;52.384;13.420;2022-12-16T16:18:51;23.47;;;22.13;;
11255;SDS011;5685;52.384;13.420;2022-12-16T16:22:11;23.83;;;22.43;;
11255;SDS011;5685;52.384;13.420;2022-12-16T16:25:32;23.60;;;22.20;;
11255;SDS011;5685;52.384;13.420;2022-12-16T16:28:51;23.67;;;22.27;;
11255;SDS011;5685;52.384;13.420;2022-12-16T16:32:11;23.67;;;22.27;;
11255;SDS011;5685;52.384;13.420;2022-12-16T16:35:32;23.23;;;21.93;;
11255;SDS011;5685;52.384;13.420;2022-12-16T16:38:59;23.33;;;22.03;;
11255;SDS011;5685;52.384;13.420;2022-12-16T16:42:19;23.67;;;22.27;;
11255;SDS011;5685;52.384;13.420;2022-12-16T16:45:38;23.63;;;22.23;;
11255;SDS011;5685;52.384;13.420;2022-12-16T16:48:58;23.77;;;22.37;;
11255;SDS011;5685;52.384;13.420;2022-12-16T16:52:21;23.60;;;22.20;;
11255;SDS011;5685;52.384;13.420;2022-12-16T16:55:42;23.27;;;21.97;;
11255;SDS011;5685;52.384;13.420;2022-12-16T16:59:03;23.90;;;22.50;;
11255;SDS011;5685;52.384;13.420;2022-12-16T17:02:23;23.67;;;22.27;;
11255;SDS011;5685;52.384;13.420;2022-12-16T17:05:43;24.00;;;22.60;;
11255;SDS011;5685;52.384;13.420;2022-12-16T17:09:04;23.57;;;22.17;;
11255;SDS011;5685;52.384;13.420;2022-12-16T17:12:26;23.70;;;22.30;;
11255;SDS011;5685;52.384;13.420;2022-12-16T17:15:47;23.60;;;22.20;;
11255;SDS011;5685;52.384;13.420;2022-12-16T17:19:07;23.83;;;22.43;;
11255;SDS011;5685;52.384;13.420;2022-12-16T17:22:27;23.80;;;22.40;;
11255;SDS011;5685;52.384;13.420;2022-12-16T17:25:49;23.60;;;22.20;;
11255;SDS011;5685;52.384;13.420;2022-12-16T17:29:11;23.77;;;22.37;;
11255;SDS011;5685;52.384;13.420;2022-12-16T17:32:35;23.73;;;22.33;;
11255;SDS011;5685;52.384;13.420;2022-12-16T17:35:56;23.73;;;22.33;;
11255;SDS011;5685;52.384;13.420;2022-12-16T17:39:16;23.67;;;22.27;;
11255;SDS011;5685;52.384;13.420;2022-12-16T17:42:37;23.87;;;22.47;;
11255;SDS011;5685;52.384;13.420;2022-12-16T17:45:57;23.63;;;22.23;;
11255;SDS011;5685;52.384;13.420;2022-12-16T17:49:18;23.57;;;22.17;;
11255;SDS011;5685;52.384;13.420;2022-12-16T17:52:38;23.63;;;22.23;;
11255;SDS011;5685;52.384;13.420;2022-12-16T17:56:01;23.73;;;22.33;;
11255;SDS011;5685;52.384;13.420;2022-12-16T17:59:23;23.87;;;22.47;;
11255;SDS011;5685;52.384;13.420;2022-12-16T18:02:42;23.67;;;22.27;;
11255;SDS011;5685;52.384;13.420;2022-12-16T18:06:02;23.80;;;22.40;;
11255;SDS011;5685;52.384;13.420;2022-12-16T18:09:22;23.93;;;22.53;;
11255;SDS011;5685;52.384;13.420;2022-12-16T18:12:43;24.03;;;22.63;;
11255;SDS011;5685;52.384;13.420;2022-12-16T18:16:05;23.90;;;22.50;;
11255;SDS011;5685;52.384;13.420;2022-12-16T18:19:25;23.83;;;22.43;;
11255;SDS011;5685;52.384;13.420;2022-12-16T18:22:45;24.00;;;22.60;;
11255;SDS011;5685;52.384;13.420;2022-12-16T18:26:05;23.83;;;22.43;;
11255;SDS011;5685;52.384;13.420;2022-12-16T18:29:35;24.10;;;22.70;;
11255;SDS011;5685;52.384;13.420;2022-12-16T18:32:56;23.93;;;22.53;;
11255;SDS011;5685;52.384;13.420;2022-12-16T18:36:16;23.67;;;22.27;;
11255;SDS011;5685;52.384;13.420;2022-12-16T18:39:36;23.80;;;22.40;;
11255;SDS011;5685;52.384;13.420;2022-12-16T18:42:56;24.27;;;22.87;;
11255;SDS011;5685;52.384;13.420;2022-12-16T18:46:16;23.63;;;22.23;;
11255;SDS011;5685;52.384;13.420;2022-12-16T18:49:37;23.70;;;22.30;;
11255;SDS011;5685;52.384;13.420;2022-12-16T18:52:57;23.90;;;22.50;;
11255;SDS011;5685;52.384;13.420;2022-12-16T18:56:17;23.80;;;22.40;;
11255;SDS011;5685;52.384;13.420;2022-12-16T18:59:37;23.90;;;22.50;;
11255;SDS011;5685;52.384;13.420;2022-12-16T19:02:57;23.97;;;22.57;;
11255;SDS011;5685;52.384;13.420;2022-12-16T19:06:18;23.90;;;22.50;;
11255;SDS011;5685;52.384;13.420;2022-12-16T19:09:38;23.83;;;22.43;;
11255;SDS011;5685;52.384;13.420;2022-12-16T19:12:58;23.77;;;22.37;;
11255;SDS011;5685;52.384;13.420;2022-12-16T19:16:18;23.77;;;22.37;;
11255;SDS011;5685;52.384;13.420;2022-12-16T19:19:38;23.90;;;22.50;;
11255;SDS011;5685;52.384;13.420;2022-12-16T19:23:00;23.80;;;22.40;;
11255;SDS011;5685;52.384;13.420;2022-12-16T19:26:20;24.10;;;22.70;;
11255;SDS011;5685;52.384;13.420;2022-12-16T19:29:39;23.87;;;22.47;;
11255;SDS011;5685;52.384;13.420;2022-12-16T19:32:59;24.07;;;22.67;;
11255;SDS011;5685;52.384;13.420;2022-12-16T19:36:19;24.07;;;22.67;;